Time;durP1;ratioP1;P1;durP2;ratioP2;P2;SDS_P1;SDS_P2;PMS_P1;PMS_P2;Temp;Humidity;BMP_temperature;BMP_pressure;BME280_temperature;BME280_humidity;BME280_pressure;Samples;Min_cycle;Max_cycle;Signal;HPM_P1;HPM_P2
2021/06/23 00:01:38;;;;;;;35.47;16.67;;;;;;;-145.50;100.00;65435.88;4901883;29;20139;-49
2021/06/23 00:04:05;;;;;;;34.95;16.30;;;;;;;-145.50;100.00;65435.88;4910795;29;20148;-50
2021/06/23 00:06:31;;;;;;;36.15;16.35;;;;;;;-145.50;100.00;65435.88;4905404;29;20135;-49
2021/06/23 00:08:58;;;;;;;32.10;15.93;;;;;;;-145.50;100.00;65435.88;4899628;29;20224;-50
2021/06/23 00:11:37;;;;;;;31.13;15.52;;;;;;;-145.50;100.00;65435.88;4901047;29;20473;-50
2021/06/23 00:14:04;;;;;;;31.20;16.35;;;;;;;-145.50;100.00;65435.88;4893096;29;20146;-50
2021/06/23 00:16:30;;;;;;;30.95;15.00;;;;;;;-145.50;100.00;65435.88;4906402;29;20163;-49
2021/06/23 00:18:57;;;;;;;35.42;15.20;;;;;;;-145.50;100.00;65435.88;4901088;29;20052;-49
2021/06/23 00:21:23;;;;;;;35.63;15.00;;;;;;;-145.50;100.00;65435.88;4909818;29;20139;-49
2021/06/23 00:23:50;;;;;;;33.13;15.95;;;;;;;-145.50;100.00;65435.88;4904087;29;20055;-49
2021/06/23 00:26:16;;;;;;;38.38;16.70;;;;;;;-145.50;100.00;65435.88;4899991;29;20088;-49
2021/06/23 00:28:43;;;;;;;38.38;15.55;;;;;;;-145.50;100.00;65435.88;4905948;29;20084;-49
2021/06/23 00:31:09;;;;;;;34.15;14.57;;;;;;;-145.50;100.00;65435.88;4904071;29;20139;-50
2021/06/23 00:33:37;;;;;;;32.90;14.38;;;;;;;-145.50;100.00;65435.88;4910111;29;20081;-49
2021/06/23 00:36:04;;;;;;;26.13;14.40;;;;;;;-145.50;100.00;65435.88;4904758;29;20087;-49
2021/06/23 00:38:30;;;;;;;34.10;14.50;;;;;;;-145.50;100.00;65435.88;4901841;29;20131;-49
2021/06/23 00:40:57;;;;;;;28.35;14.55;;;;;;;-145.50;100.00;65435.88;4903561;29;20533;-50
2021/06/23 00:43:25;;;;;;;27.95;13.48;;;;;;;-145.50;100.00;65435.88;4906086;29;20098;-49
2021/06/23 00:45:52;;;;;;;36.72;14.20;;;;;;;-145.50;100.00;65435.88;4906134;29;20094;-52
2021/06/23 00:48:23;;;;;;;37.65;14.88;;;;;;;-145.50;100.00;65435.88;4902463;29;20059;-48
2021/06/23 00:50:49;;;;;;;41.10;14.25;;;;;;;-145.50;100.00;65435.88;4895265;29;20135;-51
2021/06/23 00:53:16;;;;;;;30.05;13.93;;;;;;;-145.50;100.00;65435.88;4900686;29;20202;-49
2021/06/23 00:55:42;;;;;;;34.40;13.23;;;;;;;-145.50;100.00;65435.88;4910046;29;20131;-49
2021/06/23 00:58:12;;;;;;;32.67;14.10;;;;;;;-145.50;100.00;65435.88;4903761;29;20502;-49
2021/06/23 01:00:39;;;;;;;34.65;14.57;;;;;;;-145.50;100.00;65435.88;4907090;29;20147;-50
2021/06/23 01:03:09;;;;;;;27.70;13.20;;;;;;;-145.50;100.00;65435.88;4906572;29;20176;-52
2021/06/23 01:05:37;;;;;;;27.27;13.32;;;;;;;-145.50;100.00;65435.88;4903596;29;20058;-50
2021/06/23 01:08:06;;;;;;;29.48;14.15;;;;;;;-145.50;100.00;65435.88;4898425;29;20084;-49
2021/06/23 01:10:36;;;;;;;32.13;13.68;;;;;;;-145.50;100.00;65435.88;4899479;29;20147;-48
2021/06/23 01:13:28;;;;;;;34.65;14.55;;;;;;;-145.50;100.00;65435.88;4909231;29;20131;-48
2021/06/23 01:15:55;;;;;;;44.72;15.88;;;;;;;-145.50;100.00;65435.88;4903472;29;20140;-50
2021/06/23 01:18:23;;;;;;;31.20;14.35;;;;;;;-145.50;100.00;65435.88;4907650;29;20115;-51
2021/06/23 01:20:50;;;;;;;34.88;13.20;;;;;;;-145.50;100.00;65435.88;4897165;29;20044;-49
2021/06/23 01:23:16;;;;;;;36.22;14.60;;;;;;;-145.50;100.00;65435.88;4908257;29;20461;-48
2021/06/23 01:25:45;;;;;;;31.92;13.55;;;;;;;-145.50;100.00;65435.88;4910467;29;20052;-49
2021/06/23 01:28:12;;;;;;;27.00;14.95;;;;;;;-145.50;100.00;65435.88;4903321;29;20147;-49
2021/06/23 01:30:38;;;;;;;43.22;14.02;;;;;;;-145.50;100.00;65435.88;4909722;29;20135;-49
2021/06/23 01:33:05;;;;;;;31.63;14.77;;;;;;;-145.50;100.00;65435.88;4898037;29;20091;-52
2021/06/23 01:35:33;;;;;;;30.95;12.68;;;;;;;-145.50;100.00;65435.88;4897035;29;20151;-49
2021/06/23 01:38:04;;;;;;;38.97;14.15;;;;;;;-145.50;100.00;65435.88;4899889;29;20092;-53
2021/06/23 01:40:31;;;;;;;30.10;13.20;;;;;;;-145.50;100.00;65435.88;4908093;29;20091;-52
2021/06/23 01:42:58;;;;;;;37.47;14.00;;;;;;;-145.50;100.00;65435.88;4908495;29;20087;-49
2021/06/23 01:45:25;;;;;;;31.15;13.82;;;;;;;-145.50;100.00;65435.88;4903385;29;20146;-49
2021/06/23 01:47:52;;;;;;;28.73;14.00;;;;;;;-145.50;100.00;65435.88;4904808;29;20071;-49
2021/06/23 01:50:21;;;;;;;24.80;13.65;;;;;;;-145.50;100.00;65435.88;4898739;29;20801;-49
2021/06/23 01:52:48;;;;;;;35.15;13.68;;;;;;;-145.50;100.00;65435.88;4895073;29;20060;-52
2021/06/23 01:55:27;;;;;;;24.45;13.23;;;;;;;-145.50;100.00;65435.88;4902930;29;20151;-51
2021/06/23 01:58:03;;;;;;;27.95;13.73;;;;;;;-145.50;100.00;65435.88;4908439;29;20066;-53
2021/06/23 02:00:34;;;;;;;33.63;13.60;;;;;;;-145.50;100.00;65435.88;4899800;29;20591;-50
2021/06/23 02:03:16;;;;;;;31.52;13.43;;;;;;;-145.50;100.00;65435.88;4902737;29;20115;-50
2021/06/23 02:06:05;;;;;;;35.90;14.73;;;;;;;-145.50;100.00;65435.88;4899965;29;20163;-52
2021/06/23 02:08:37;;;;;;;31.75;13.02;;;;;;;-145.50;100.00;65435.88;4908310;29;20052;-53
2021/06/23 02:11:13;;;;;;;26.20;13.15;;;;;;;-145.50;100.00;65435.88;4909331;29;20139;-51
2021/06/23 02:13:58;;;;;;;26.95;12.43;;;;;;;-145.50;100.00;65435.88;4916298;29;20084;-50
2021/06/23 02:16:25;;;;;;;31.65;12.95;;;;;;;-145.50;100.00;65435.88;4908044;29;20138;-49
2021/06/23 02:18:53;;;;;;;25.60;12.43;;;;;;;-145.50;100.00;65435.88;4902973;29;20052;-49
2021/06/23 02:21:20;;;;;;;25.53;12.23;;;;;;;-145.50;100.00;65435.88;4909251;29;20457;-51
2021/06/23 02:23:46;;;;;;;28.10;13.00;;;;;;;-145.50;100.00;65435.88;4901314;29;20095;-49
2021/06/23 02:26:14;;;;;;;31.27;12.27;;;;;;;-145.50;100.00;65435.88;4904393;29;20095;-50
2021/06/23 02:28:40;;;;;;;32.60;12.60;;;;;;;-145.50;100.00;65435.88;4900623;29;20060;-51
2021/06/23 02:31:09;;;;;;;33.67;12.45;;;;;;;-145.50;100.00;65435.88;4909008;29;20150;-50
2021/06/23 02:34:08;;;;;;;;;;;;;;;-145.50;100.00;65435.88;4908130;29;20051;-49
2021/06/23 02:37:35;;;;;;;30.50;13.05;;;;;;;-145.50;100.00;65435.88;4908334;29;19927;-50
2021/06/23 02:41:00;;;;;;;21.83;12.38;;;;;;;-145.50;100.00;65435.88;4893346;29;20132;-49
2021/06/23 02:44:24;;;;;;;27.38;12.38;;;;;;;-145.50;100.00;65435.88;4883336;29;20063;-49
2021/06/23 02:47:49;;;;;;;22.30;10.80;;;;;;;-145.50;100.00;65435.88;4891182;29;20203;-50
2021/06/23 02:51:21;;;;;;;20.10;11.43;;;;;;;-145.50;100.00;65435.88;4905084;29;20147;-52
2021/06/23 02:54:47;;;;;;;24.98;11.48;;;;;;;-145.50;100.00;65435.88;4904677;29;20139;-50
2021/06/23 02:58:12;;;;;;;29.83;12.85;;;;;;;-145.50;100.00;65435.88;4900134;29;20082;-52
2021/06/23 03:01:38;;;;;;;30.95;13.23;;;;;;;-145.50;100.00;65435.88;4904853;29;20084;-52
2021/06/23 03:05:04;;;;;;;32.03;11.93;;;;;;;-145.50;100.00;65435.88;4908157;29;20090;-50
2021/06/23 03:07:52;;;;;;;29.40;11.98;;;;;;;-145.50;100.00;65435.88;4904668;29;20159;-53
2021/06/23 03:10:39;;;;;;;28.60;12.27;;;;;;;-145.50;100.00;65435.88;4893770;29;20552;-50
2021/06/23 03:13:27;;;;;;;39.85;12.40;;;;;;;-145.50;100.00;65435.88;4903682;29;20156;-50
2021/06/23 03:16:15;;;;;;;35.42;13.70;;;;;;;-145.50;100.00;65435.88;4898278;29;20474;-50
2021/06/23 03:19:19;;;;;;;25.73;12.60;;;;;;;-145.50;100.00;65435.88;4912345;29;20427;-52
2021/06/23 03:22:44;;;;;;;29.20;13.07;;;;;;;-145.50;100.00;65435.88;4905364;29;20139;-53
2021/06/23 03:25:57;;;;;;;26.25;13.15;;;;;;;-145.50;100.00;65435.88;4903230;29;20060;-50
2021/06/23 03:28:48;;;;;;;32.63;12.23;;;;;;;-145.50;100.00;65435.88;4904599;29;20146;-50
2021/06/23 03:32:13;;;;;;;35.63;13.43;;;;;;;-145.50;100.00;65435.88;4905729;29;20067;-50
2021/06/23 03:35:38;;;;;;;26.13;13.35;;;;;;;-145.50;100.00;65435.88;4909924;29;20576;-50
2021/06/23 03:38:39;;;;;;;29.15;11.48;;;;;;;-145.50;100.00;65435.88;4889249;29;20604;-50
2021/06/23 03:42:05;;;;;;;33.97;12.27;;;;;;;-145.50;100.00;65435.88;4907457;29;20135;-51
2021/06/23 03:45:30;;;;;;;26.15;12.73;;;;;;;-145.50;100.00;65435.88;4897005;29;20166;-51
2021/06/23 03:48:56;;;;;;;28.27;12.00;;;;;;;-145.50;100.00;65435.88;4896669;29;20497;-50
2021/06/23 03:52:22;;;;;;;24.80;12.65;;;;;;;-145.50;100.00;65435.88;4903181;29;20163;-51
2021/06/23 03:55:47;;;;;;;28.10;12.32;;;;;;;-145.50;100.00;65435.88;4905045;29;20143;-50
2021/06/23 03:59:09;;;;;;;23.85;12.10;;;;;;;-145.50;100.00;65435.88;4911020;29;20495;-51
2021/06/23 04:02:33;;;;;;;28.38;11.93;;;;;;;-145.50;100.00;65435.88;4902978;29;20141;-51
2021/06/23 04:05:58;;;;;;;28.02;12.50;;;;;;;-145.50;100.00;65435.88;4903357;29;21296;-50
2021/06/23 04:09:23;;;;;;;21.73;11.00;;;;;;;-145.50;100.00;65435.88;4911052;29;20091;-50
2021/06/23 04:12:48;;;;;;;29.42;12.05;;;;;;;-145.50;100.00;65435.88;4900576;29;20143;-50
2021/06/23 04:16:13;;;;;;;32.08;11.63;;;;;;;-145.50;100.00;65435.88;4903198;29;20071;-50
2021/06/23 04:19:39;;;;;;;24.83;10.50;;;;;;;-145.50;100.00;65435.88;4904461;29;20067;-52
2021/06/23 04:23:04;;;;;;;23.13;11.13;;;;;;;-145.50;100.00;65435.88;4896146;29;20394;-50
2021/06/23 04:26:29;;;;;;;29.65;11.95;;;;;;;-145.50;100.00;65435.88;4901121;29;20099;-50
2021/06/23 04:29:55;;;;;;;31.67;11.65;;;;;;;-145.50;100.00;65435.88;4900072;29;20095;-50
2021/06/23 04:33:20;;;;;;;25.88;11.95;;;;;;;-145.50;100.00;65435.88;4888929;29;20497;-50
2021/06/23 04:36:43;;;;;;;29.80;11.43;;;;;;;-145.50;100.00;65435.88;4910728;29;20087;-50
2021/06/23 04:40:11;;;;;;;32.33;11.70;;;;;;;-145.50;100.00;65435.88;4895519;29;20135;-50
2021/06/23 04:43:36;;;;;;;25.55;11.23;;;;;;;-145.50;100.00;65435.88;4894450;29;20522;-50
2021/06/23 04:47:02;;;;;;;27.92;9.77;;;;;;;-145.50;100.00;65435.88;4897112;29;20080;-52
2021/06/23 04:50:26;;;;;;;20.17;10.35;;;;;;;-145.50;100.00;65435.88;4903402;29;20400;-52
2021/06/23 04:53:45;;;;;;;22.45;10.55;;;;;;;-145.50;100.00;65435.88;4909248;29;20056;-52
2021/06/23 04:57:10;;;;;;;28.15;11.45;;;;;;;-145.50;100.00;65435.88;4900640;29;20063;-50
2021/06/23 05:00:35;;;;;;;22.90;10.43;;;;;;;-145.50;100.00;65435.88;4903511;29;20135;-51
2021/06/23 05:04:02;;;;;;;28.70;10.98;;;;;;;-145.50;100.00;65435.88;4885738;29;20058;-50
2021/06/23 05:07:27;;;;;;;23.45;10.13;;;;;;;-145.50;100.00;65435.88;4906032;29;20144;-51
2021/06/23 05:10:52;;;;;;;21.83;11.15;;;;;;;-145.50;100.00;65435.88;4896299;29;20139;-50
2021/06/23 05:14:17;;;;;;;28.67;12.85;;;;;;;-145.50;100.00;65435.88;4884523;29;20052;-50
2021/06/23 05:17:42;;;;;;;29.95;10.57;;;;;;;-145.50;100.00;65435.88;4898943;29;20553;-53
2021/06/23 05:21:08;;;;;;;24.67;11.27;;;;;;;-145.50;100.00;65435.88;4887525;29;20167;-49
2021/06/23 05:24:33;;;;;;;20.80;10.13;;;;;;;-145.50;100.00;65435.88;4900918;29;20051;-50
2021/06/23 05:27:59;;;;;;;26.88;10.85;;;;;;;-145.50;100.00;65435.88;4899633;29;20152;-50
2021/06/23 05:31:25;;;;;;;30.90;11.77;;;;;;;-145.50;100.00;65435.88;4900373;29;20088;-50
2021/06/23 05:34:50;;;;;;;28.42;10.98;;;;;;;-145.50;100.00;65435.88;4895943;29;20559;-53
2021/06/23 05:38:15;;;;;;;25.10;10.70;;;;;;;-145.50;100.00;65435.88;4872983;29;20171;-50
2021/06/23 05:41:40;;;;;;;27.60;12.05;;;;;;;-145.50;100.00;65435.88;4895085;29;20562;-50
2021/06/23 05:45:05;;;;;;;23.30;11.00;;;;;;;-145.50;100.00;65435.88;4905962;29;22666;-50
2021/06/23 05:48:31;;;;;;;22.10;9.95;;;;;;;-145.50;100.00;65435.88;4888828;29;20781;-50
2021/06/23 05:51:56;;;;;;;31.20;11.50;;;;;;;-145.50;100.00;65435.88;4890818;29;20135;-51
2021/06/23 05:55:21;;;;;;;25.90;10.40;;;;;;;-145.50;100.00;65435.88;4883661;29;20098;-53
2021/06/23 05:58:50;;;;;;;36.33;10.75;;;;;;;-145.50;100.00;65435.88;4896362;29;20135;-50
2021/06/23 06:02:15;;;;;;;23.52;10.05;;;;;;;-145.50;100.00;65435.88;4905634;29;20051;-54
2021/06/23 06:05:40;;;;;;;25.90;10.20;;;;;;;-145.50;100.00;65435.88;4894630;29;20206;-51
2021/06/23 06:09:05;;;;;;;21.65;9.05;;;;;;;-145.50;100.00;65435.88;4895948;29;20087;-52
2021/06/23 06:12:30;;;;;;;29.85;10.73;;;;;;;-145.50;100.00;65435.88;4880943;29;20060;-51
2021/06/23 06:15:55;;;;;;;24.33;9.70;;;;;;;-145.50;100.00;65435.88;4909065;29;20052;-51
2021/06/23 06:19:23;;;;;;;26.73;8.57;;;;;;;-145.50;100.00;65435.88;4896747;29;20147;-54
2021/06/23 06:22:48;;;;;;;20.75;8.65;;;;;;;-145.50;100.00;65435.88;4899653;29;20481;-51
2021/06/23 06:26:13;;;;;;;28.40;9.98;;;;;;;-145.50;100.00;65435.88;4898184;29;20059;-52
2021/06/23 06:29:38;;;;;;;29.02;8.35;;;;;;;-145.50;100.00;65435.88;4895901;29;20143;-53
2021/06/23 06:33:03;;;;;;;23.73;7.75;;;;;;;-145.50;100.00;65435.88;4900478;29;20161;-53
2021/06/23 06:36:28;;;;;;;19.98;8.05;;;;;;;-145.50;100.00;65435.88;4895778;29;20136;-51
2021/06/23 06:39:53;;;;;;;20.77;9.48;;;;;;;-145.50;100.00;65435.88;4897576;29;20568;-53
2021/06/23 06:43:18;;;;;;;26.38;9.18;;;;;;;-145.50;100.00;65435.88;4905377;29;20075;-52
2021/06/23 06:46:44;;;;;;;19.73;7.75;;;;;;;-145.50;100.00;65435.88;4895354;29;20091;-52
2021/06/23 06:50:09;;;;;;;24.23;7.80;;;;;;;-145.50;100.00;65435.88;4903984;29;20060;-52
2021/06/23 06:53:34;;;;;;;19.58;7.03;;;;;;;-145.50;100.00;65435.88;4904495;29;20094;-52
2021/06/23 06:57:00;;;;;;;18.90;8.10;;;;;;;-145.50;100.00;65435.88;4895942;29;20511;-55
2021/06/23 07:00:25;;;;;;;25.90;8.38;;;;;;;-145.50;100.00;65435.88;4889275;29;20145;-51
2021/06/23 07:03:51;;;;;;;21.65;7.78;;;;;;;-145.50;100.00;65435.88;4888869;29;20059;-54
2021/06/23 07:07:16;;;;;;;23.08;7.57;;;;;;;-145.50;100.00;65435.88;4895775;29;20096;-52
2021/06/23 07:10:41;;;;;;;24.75;7.32;;;;;;;-145.50;100.00;65435.88;4894578;29;20135;-52
2021/06/23 07:14:06;;;;;;;21.45;6.93;;;;;;;-145.50;100.00;65435.88;4889189;29;20044;-52
2021/06/23 07:17:31;;;;;;;13.95;6.93;;;;;;;-145.50;100.00;65435.88;4899707;29;20071;-52
2021/06/23 07:20:56;;;;;;;21.63;8.18;;;;;;;-145.50;100.00;65435.88;4894310;29;20084;-52
2021/06/23 07:24:21;;;;;;;22.58;6.13;;;;;;;-145.50;100.00;65435.88;4898647;29;20052;-50
2021/06/23 07:27:47;;;;;;;20.75;7.00;;;;;;;-145.50;100.00;65435.88;4906928;29;20055;-50
2021/06/23 07:31:15;;;;;;;21.63;6.97;;;;;;;-145.50;100.00;65435.88;4901496;29;20139;-51
2021/06/23 07:38:14;;;;;;;20.05;7.50;;;;;;;-145.50;100.00;65435.88;4895925;29;20631;-50
2021/06/23 07:41:42;;;;;;;22.27;7.53;;;;;;;-145.50;100.00;65435.88;4895491;29;20472;-50
2021/06/23 07:45:07;;;;;;;20.00;7.07;;;;;;;-145.50;100.00;65435.88;4901360;29;20044;-50
2021/06/23 07:48:36;;;;;;;21.90;7.30;;;;;;;-145.50;100.00;65435.88;4899614;29;20655;-51
2021/06/23 07:52:08;;;;;;;19.33;7.35;;;;;;;-145.50;100.00;65435.88;4904644;29;20064;-51
2021/06/23 08:10:41;;;;;;;22.58;8.18;;;;;;;-145.50;100.00;65435.88;4892061;29;20147;-50
2021/06/23 08:14:06;;;;;;;28.80;7.53;;;;;;;-145.50;100.00;65435.88;4909644;29;20607;-50
2021/06/23 08:17:32;;;;;;;17.83;7.07;;;;;;;-145.50;100.00;65435.88;4888441;29;20115;-49
2021/06/23 08:20:57;;;;;;;24.25;7.80;;;;;;;-145.50;100.00;65435.88;4904496;29;20131;-50
2021/06/23 08:24:22;;;;;;;21.13;6.78;;;;;;;-145.50;100.00;65435.88;4894616;29;20867;-50
2021/06/23 08:27:47;;;;;;;15.23;7.07;;;;;;;-145.50;100.00;65435.88;4901614;29;20154;-50
2021/06/23 08:31:13;;;;;;;29.48;8.70;;;;;;;-145.50;100.00;65435.88;4904067;29;20055;-49
2021/06/23 08:34:38;;;;;;;24.38;8.65;;;;;;;-145.50;100.00;65435.88;4894670;29;20137;-50
2021/06/23 08:38:03;;;;;;;19.63;7.88;;;;;;;-145.50;100.00;65435.88;4901386;29;20416;-50
2021/06/23 08:41:29;;;;;;;23.42;6.40;;;;;;;-145.50;100.00;65435.88;4903662;29;20139;-50
2021/06/23 08:44:56;;;;;;;19.08;5.93;;;;;;;-145.50;100.00;65435.88;4902543;29;20138;-51
2021/06/23 08:48:24;;;;;;;18.73;6.47;;;;;;;-145.50;100.00;65435.88;4902274;29;20143;-51
2021/06/23 08:51:49;;;;;;;18.73;6.70;;;;;;;-145.50;100.00;65435.88;4893755;29;20495;-50
2021/06/23 08:55:21;;;;;;;16.98;6.30;;;;;;;-145.50;100.00;65435.88;4901102;29;20111;-50
2021/06/23 08:58:48;;;;;;;20.75;6.75;;;;;;;-145.50;100.00;65435.88;4899435;29;20488;-52
2021/06/23 09:02:15;;;;;;;22.00;6.68;;;;;;;-145.50;100.00;65435.88;4898485;29;20047;-50
2021/06/23 09:05:57;;;;;;;20.85;6.90;;;;;;;-145.50;100.00;65435.88;4884270;29;20151;-50
2021/06/23 09:09:35;;;;;;;22.38;6.60;;;;;;;-145.50;100.00;65435.88;4897327;29;20160;-52
2021/06/23 09:13:08;;;;;;;20.27;5.50;;;;;;;-145.50;100.00;65435.88;4901089;29;20135;-49
2021/06/23 09:16:13;;;;;;;18.33;5.60;;;;;;;-145.50;100.00;65435.88;4904571;29;20048;-50
2021/06/23 09:19:44;;;;;;;18.20;7.55;;;;;;;-145.50;100.00;65435.88;4893977;29;20058;-49
2021/06/23 09:23:35;;;;;;;18.17;5.70;;;;;;;-145.50;100.00;65435.88;4902500;29;20135;-49
2021/06/23 09:27:25;;;;;;;19.08;5.18;;;;;;;-145.50;100.00;65435.88;4902584;29;20142;-49
2021/06/23 09:30:50;;;;;;;26.70;6.78;;;;;;;-145.50;100.00;65435.88;4900731;29;20074;-52
2021/06/23 09:34:20;;;;;;;18.90;6.32;;;;;;;-145.50;100.00;65435.88;4900166;29;20170;-50
2021/06/23 09:37:45;;;;;;;18.58;6.57;;;;;;;-145.50;100.00;65435.88;4899249;29;20060;-52
2021/06/23 09:41:24;;;;;;;28.33;12.38;;;;;;;-145.50;100.00;65435.88;4900748;29;20091;-49
2021/06/23 09:45:05;;;;;;;17.77;6.07;;;;;;;-145.50;100.00;65435.88;4906402;29;20088;-49
2021/06/23 09:48:31;;;;;;;17.77;5.95;;;;;;;-145.50;100.00;65435.88;4893660;29;20136;-51
2021/06/23 09:52:10;;;;;;;19.13;6.63;;;;;;;-145.50;100.00;65435.88;4891776;29;20477;-49
2021/06/23 09:55:48;;;;;;;22.38;6.78;;;;;;;-145.50;100.00;65435.88;4899166;29;20468;-51
2021/06/23 09:59:24;;;;;;;23.48;6.40;;;;;;;-145.50;100.00;65435.88;4894966;29;20151;-49
2021/06/23 10:03:01;;;;;;;19.80;6.32;;;;;;;-145.50;100.00;65435.88;4900388;29;20158;-50
2021/06/23 10:06:33;;;;;;;19.95;6.57;;;;;;;-145.50;100.00;65435.88;4896462;29;20473;-49
2021/06/23 10:10:15;;;;;;;19.40;6.47;;;;;;;-145.50;100.00;65435.88;4890731;29;20592;-50
2021/06/23 10:13:41;;;;;;;24.10;7.30;;;;;;;-145.50;100.00;65435.88;4876494;29;20516;-49
2021/06/23 10:17:07;;;;;;;21.65;7.68;;;;;;;-145.50;100.00;65435.88;4900333;29;20131;-48
2021/06/23 10:20:32;;;;;;;16.52;7.57;;;;;;;-145.50;100.00;65435.88;4889122;29;20178;-49
2021/06/23 10:23:59;;;;;;;25.48;9.60;;;;;;;-145.50;100.00;65435.88;4896651;29;20056;-49
2021/06/23 10:27:25;;;;;;;18.05;8.40;;;;;;;-145.50;100.00;65435.88;4891315;29;20416;-50
2021/06/23 10:30:51;;;;;;;22.25;7.57;;;;;;;-145.50;100.00;65435.88;4898397;29;20051;-50
2021/06/23 10:34:18;;;;;;;22.30;8.00;;;;;;;-145.50;100.00;65435.88;4906151;29;20060;-49
2021/06/23 10:37:44;;;;;;;18.33;6.50;;;;;;;-145.50;100.00;65435.88;4896956;29;20341;-49
2021/06/23 10:41:11;;;;;;;19.83;6.63;;;;;;;-145.50;100.00;65435.88;4898892;29;20566;-49
2021/06/23 10:44:47;;;;;;;20.27;6.43;;;;;;;-145.50;100.00;65435.88;4871819;29;20064;-50
2021/06/23 10:48:51;;;;;;;17.73;6.47;;;;;;;-145.50;100.00;65435.88;4884596;29;20156;-49
2021/06/23 10:52:24;;;;;;;16.25;5.95;;;;;;;-145.50;100.00;65435.88;4884614;29;20153;-51
2021/06/23 10:55:52;;;;;;;20.00;7.00;;;;;;;-145.50;100.00;65435.88;4868919;29;20606;-50
2021/06/23 10:59:36;;;;;;;18.73;6.82;;;;;;;-145.50;100.00;65435.88;4883573;29;20092;-50
2021/06/23 11:03:13;;;;;;;22.58;7.47;;;;;;;-145.50;100.00;65435.88;4878471;29;20056;-49
2021/06/23 11:06:43;;;;;;;36.60;16.13;;;;;;;-145.50;100.00;65435.88;4878748;29;20083;-49
2021/06/23 11:10:27;;;;;;;17.17;7.10;;;;;;;-145.50;100.00;65435.88;4875849;29;20139;-48
2021/06/23 11:14:13;;;;;;;20.42;6.65;;;;;;;-145.50;100.00;65435.88;4878782;29;20056;-49
2021/06/23 11:17:32;;;;;;;18.10;6.50;;;;;;;-145.50;100.00;65435.88;4882744;29;20089;-49
2021/06/23 11:20:00;;;;;;;20.25;6.57;;;;;;;-145.50;100.00;65435.88;4887881;29;20057;-48
2021/06/23 11:23:41;;;;;;;25.67;7.28;;;;;;;-145.50;100.00;65435.88;4879654;29;20072;-49
2021/06/23 11:26:21;;;;;;;21.52;6.53;;;;;;;-145.50;100.00;65435.88;4889458;29;20119;-49
2021/06/23 11:29:11;;;;;;;16.65;5.95;;;;;;;-145.50;100.00;65435.88;4887144;29;20088;-50
2021/06/23 11:32:29;;;;;;;19.65;7.05;;;;;;;-145.50;100.00;65435.88;4885955;29;20512;-50
2021/06/23 11:35:55;;;;;;;20.48;6.28;;;;;;;-145.50;100.00;65435.88;4884501;29;20092;-49
2021/06/23 11:39:19;;;;;;;15.95;6.32;;;;;;;-145.50;100.00;65435.88;4878760;29;20778;-50
2021/06/23 11:42:44;;;;;;;20.80;5.65;;;;;;;-145.50;100.00;65435.88;4877828;29;20871;-50
2021/06/23 11:46:05;;;;;;;28.65;10.65;;;;;;;-145.50;100.00;65435.88;4885177;29;20143;-52
2021/06/23 11:48:38;;;;;;;16.88;6.88;;;;;;;-145.50;100.00;65435.88;4892582;29;20056;-49
2021/06/23 11:52:04;;;;;;;17.48;7.45;;;;;;;-145.50;100.00;65435.88;4877410;29;20152;-49
2021/06/23 11:55:34;;;;;;;18.58;6.85;;;;;;;-145.50;100.00;65435.88;4886717;29;20082;-48
2021/06/23 11:58:59;;;;;;;22.10;7.28;;;;;;;-145.50;100.00;65435.88;4884161;29;20145;-49
2021/06/23 12:02:26;;;;;;;20.48;8.18;;;;;;;-145.50;100.00;65435.88;4881691;29;20108;-50
2021/06/23 12:05:52;;;;;;;;;;;;;;;-145.50;100.00;65435.88;4883684;29;20146;-48
2021/06/23 12:09:17;;;;;;;24.38;8.32;;;;;;;-145.50;100.00;65435.88;4879838;29;20327;-51
2021/06/23 12:12:42;;;;;;;19.25;6.65;;;;;;;-145.50;100.00;65435.88;4885664;29;20586;-49
2021/06/23 12:16:09;;;;;;;18.63;7.05;;;;;;;-145.50;100.00;65435.88;4881844;29;20171;-49
2021/06/23 12:19:34;;;;;;;14.60;6.32;;;;;;;-145.50;100.00;65435.88;4869948;29;20061;-49
2021/06/23 12:23:02;;;;;;;20.60;7.20;;;;;;;-145.50;100.00;65435.88;4881286;29;20059;-51
2021/06/23 12:26:29;;;;;;;14.52;6.72;;;;;;;-145.50;100.00;65435.88;4879136;29;20054;-50
2021/06/23 12:29:54;;;;;;;17.65;6.50;;;;;;;-145.50;100.00;65435.88;4876633;29;20096;-50
2021/06/23 12:33:19;;;;;;;20.75;6.72;;;;;;;-145.50;100.00;65435.88;4884626;29;20448;-50
2021/06/23 12:36:45;;;;;;;22.02;7.13;;;;;;;-145.50;100.00;65435.88;4875211;29;20521;-50
2021/06/23 12:40:10;;;;;;;19.90;6.93;;;;;;;-145.50;100.00;65435.88;4882535;29;20103;-49
2021/06/23 12:43:35;;;;;;;12.02;6.68;;;;;;;-145.50;100.00;65435.88;4883986;29;20667;-49
2021/06/23 12:47:00;;;;;;;20.80;7.15;;;;;;;-145.50;100.00;65435.88;4887440;29;20075;-50
2021/06/23 12:50:25;;;;;;;21.40;6.30;;;;;;;-145.50;100.00;65435.88;4878588;29;20460;-49
2021/06/23 12:53:50;;;;;;;13.38;5.97;;;;;;;-145.50;100.00;65435.88;4880295;29;20153;-50
2021/06/23 12:57:15;;;;;;;18.58;7.38;;;;;;;-145.50;100.00;65435.88;4883903;29;20067;-50
2021/06/23 13:00:40;;;;;;;13.70;6.20;;;;;;;-145.50;100.00;65435.88;4880452;29;20787;-49
2021/06/23 13:04:06;;;;;;;13.88;6.10;;;;;;;-145.50;100.00;65435.88;4881931;29;20148;-48
2021/06/23 13:07:31;;;;;;;17.88;6.80;;;;;;;-145.50;100.00;65435.88;4880866;29;20811;-51
2021/06/23 13:10:56;;;;;;;17.38;7.18;;;;;;;-145.50;100.00;65435.88;4877832;29;20822;-49
2021/06/23 13:14:21;;;;;;;19.55;6.57;;;;;;;-145.50;100.00;65435.88;4882974;29;20091;-48
2021/06/23 13:17:47;;;;;;;16.95;6.72;;;;;;;-145.50;100.00;65435.88;4880710;29;20139;-51
2021/06/23 13:21:13;;;;;;;19.48;6.32;;;;;;;-145.50;100.00;65435.88;4889019;29;20088;-50
2021/06/23 13:24:39;;;;;;;13.88;6.55;;;;;;;-145.50;100.00;65435.88;4878125;29;20089;-50
2021/06/23 13:28:04;;;;;;;15.68;6.85;;;;;;;-145.50;100.00;65435.88;4882862;29;20093;-52
2021/06/23 13:31:29;;;;;;;18.70;8.45;;;;;;;-145.50;100.00;65435.88;4895551;29;20155;-51
2021/06/23 13:34:55;;;;;;;27.33;10.55;;;;;;;-145.50;100.00;65435.88;4884038;29;20053;-54
2021/06/23 13:38:24;;;;;;;19.48;6.57;;;;;;;-145.50;100.00;65435.88;4882491;29;20156;-48
2021/06/23 13:41:50;;;;;;;18.15;5.80;;;;;;;-145.50;100.00;65435.88;4886246;29;20171;-48
2021/06/23 13:45:15;;;;;;;13.48;6.50;;;;;;;-145.50;100.00;65435.88;4880504;29;20148;-51
2021/06/23 13:48:40;;;;;;;17.10;5.80;;;;;;;-145.50;100.00;65435.88;4880203;29;20279;-50
2021/06/23 13:52:06;;;;;;;23.70;6.65;;;;;;;-145.50;100.00;65435.88;4871147;29;20056;-50
2021/06/23 13:55:32;;;;;;;19.02;7.32;;;;;;;-145.50;100.00;65435.88;4878045;29;20470;-51
2021/06/23 13:58:57;;;;;;;15.20;7.03;;;;;;;-145.50;100.00;65435.88;4882818;29;20076;-53
2021/06/23 14:02:22;;;;;;;17.05;6.25;;;;;;;-145.50;100.00;65435.88;4876351;29;20528;-51
2021/06/23 14:05:48;;;;;;;15.50;6.38;;;;;;;-145.50;100.00;65435.88;4875107;29;20080;-51
2021/06/23 14:09:15;;;;;;;16.42;6.80;;;;;;;-145.50;100.00;65435.88;4893112;29;20080;-51
2021/06/23 14:12:40;;;;;;;19.38;6.50;;;;;;;-145.50;100.00;65435.88;4888272;29;20139;-48
2021/06/23 14:16:07;;;;;;;15.80;7.05;;;;;;;-145.50;100.00;65435.88;4888965;29;20056;-51
2021/06/23 14:19:32;;;;;;;14.75;7.18;;;;;;;-145.50;100.00;65435.88;4872282;29;20115;-52
2021/06/23 14:22:58;;;;;;;17.40;7.20;;;;;;;-145.50;100.00;65435.88;4884385;29;20095;-48
2021/06/23 14:26:23;;;;;;;16.30;6.85;;;;;;;-145.50;100.00;65435.88;4890042;29;20531;-51
2021/06/23 14:29:48;;;;;;;15.48;6.80;;;;;;;-145.50;100.00;65435.88;4879307;29;20053;-49
2021/06/23 14:33:13;;;;;;;22.08;7.22;;;;;;;-145.50;100.00;65435.88;4884030;29;20087;-48
2021/06/23 14:36:39;;;;;;;17.08;6.90;;;;;;;-145.50;100.00;65435.88;4874227;29;20067;-48
2021/06/23 14:40:05;;;;;;;14.23;6.75;;;;;;;-145.50;100.00;65435.88;4888187;29;20106;-50